Time,TemperatureF,DewpointF,PressureIn,WindDirection,WindDirectionDegrees,WindSpeedMPH,WindSpeedGustMPH,Humidity,HourlyPrecipIn,Conditions,Clouds,dailyrainin,SoftwareType,DateUTC
2013-03-08 00:08:00,31.2,28.0,30.33,ENE,78,0.0,0.0,88,0.00,,,0.00,weatherlink.com 1.10,2013-03-08 06:08:00,
2013-03-08 00:23:00,30.3,28.0,30.34,ENE,78,0.0,2.0,89,0.00,,,0.00,weatherlink.com 1.10,2013-03-08 06:23:00,
2013-03-08 00:38:00,30.7,28.0,30.34,ENE,78,0.0,0.0,89,0.00,,,0.00,weatherlink.com 1.10,2013-03-08 06:38:00,
2013-03-08 00:53:00,29.4,27.0,30.35,ENE,78,0.0,1.0,90,0.00,,,0.00,weatherlink.com 1.10,2013-03-08 06:53:00,
2013-03-08 01:08:00,29.4,27.0,30.36,ENE,78,0.0,0.0,90,0.00,,,0.00,weatherlink.com 1.10,2013-03-08 07:08:00,
2013-03-08 01:23:00,29.9,27.0,30.34,ENE,78,0.0,4.0,90,0.00,,,0.00,weatherlink.com 1.10,2013-03-08 07:23:00,
2013-03-08 01:38:00,29.5,27.0,30.33,ENE,78,0.0,2.0,91,0.00,,,0.00,weatherlink.com 1.10,2013-03-08 07:38:00,
2013-03-08 01:53:00,29.8,28.0,30.34,ENE,78,0.0,1.0,91,0.00,,,0.00,weatherlink.com 1.10,2013-03-08 07:53:00,
2013-03-08 02:08:00,29.8,28.0,30.34,ENE,78,0.0,2.0,91,0.00,,,0.00,weatherlink.com 1.10,2013-03-08 08:08:00,
2013-03-08 02:23:00,29.9,28.0,30.34,ENE,78,1.0,4.0,91,0.00,,,0.00,weatherlink.com 1.10,2013-03-08 08:23:00,
2013-03-08 02:38:00,29.6,27.0,30.34,ENE,78,0.0,1.0,90,0.00,,,0.00,weatherlink.com 1.10,2013-03-08 08:38:00,
2013-03-08 02:53:00,29.1,27.0,30.34,ENE,78,0.0,1.0,90,0.00,,,0.00,weatherlink.com 1.10,2013-03-08 08:53:00,
2013-03-08 03:08:00,29.4,27.0,30.34,ENE,78,0.0,1.0,90,0.00,,,0.00,weatherlink.com 1.10,2013-03-08 09:08:00,
2013-03-08 03:23:00,29.3,27.0,30.35,ENE,78,0.0,0.0,90,0.00,,,0.00,weatherlink.com 1.10,2013-03-08 09:23:00,
2013-03-08 03:39:00,28.4,26.0,30.35,ENE,78,0.0,0.0,91,0.00,,,0.00,weatherlink.com 1.10,2013-03-08 09:39:00,
2013-03-08 03:54:00,29.0,27.0,30.35,ENE,78,0.0,1.0,92,0.00,,,0.00,weatherlink.com 1.10,2013-03-08 09:54:00,
2013-03-08 04:09:00,27.2,25.0,30.36,ENE,78,0.0,1.0,91,0.00,,,0.00,weatherlink.com 1.10,2013-03-08 10:09:00,
2013-03-08 04:24:00,28.6,27.0,30.37,NE,56,1.0,4.0,92,0.00,,,0.00,weatherlink.com 1.10,2013-03-08 10:24:00,
2013-03-08 04:39:00,27.9,26.0,30.37,ENE,57,0.0,2.0,91,0.00,,,0.00,weatherlink.com 1.10,2013-03-08 10:39:00,
2013-03-08 04:54:00,27.6,26.0,30.37,ENE,57,0.0,1.0,92,0.00,,,0.00,weatherlink.com 1.10,2013-03-08 10:54:00,
2013-03-08 05:09:00,28.4,27.0,30.36,ENE,57,2.0,2.0,93,0.00,,,0.00,weatherlink.com 1.10,2013-03-08 11:09:00,
2013-03-08 05:24:00,29.2,27.0,30.37,ENE,59,1.0,4.0,92,0.00,,,0.00,weatherlink.com 1.10,2013-03-08 11:24:00,
2013-03-08 05:39:00,29.4,27.0,30.37,ENE,59,0.0,4.0,91,0.00,,,0.00,weatherlink.com 1.10,2013-03-08 11:39:00,
2013-03-08 05:54:00,29.5,27.0,30.38,NE,51,1.0,4.0,91,0.00,,,0.00,weatherlink.com 1.10,2013-03-08 11:54:00,
2013-03-08 06:09:00,29.3,27.0,30.38,NE,51,0.0,2.0,90,0.00,,,0.00,weatherlink.com 1.10,2013-03-08 12:09:00,
2013-03-08 06:24:00,29.3,27.0,30.38,NE,51,5.0,5.0,90,0.00,,,0.00,weatherlink.com 1.10,2013-03-08 12:24:00,
2013-03-08 06:39:00,29.9,27.0,30.38,NE,38,1.0,5.0,90,0.00,,,0.00,weatherlink.com 1.10,2013-03-08 12:39:00,
2013-03-08 06:54:00,30.5,28.0,30.38,ENE,71,5.0,7.0,89,0.00,,,0.00,weatherlink.com 1.10,2013-03-08 12:54:00,
2013-03-08 07:09:00,31.2,28.0,30.38,East,89,0.0,6.0,89,0.00,,,0.00,weatherlink.com 1.10,2013-03-08 13:09:00,
2013-03-08 07:24:00,32.2,29.0,30.38,East,92,2.0,6.0,88,0.00,,,0.00,weatherlink.com 1.10,2013-03-08 13:24:00,
2013-03-08 07:39:00,32.8,29.0,30.38,East,85,6.0,10.0,87,0.00,,,0.00,weatherlink.com 1.10,2013-03-08 13:39:00,
2013-03-08 07:54:00,33.9,30.0,30.39,ESE,119,4.0,5.0,86,0.00,,,0.00,weatherlink.com 1.10,2013-03-08 13:54:00,
2013-03-08 08:09:00,35.2,31.0,30.39,ENE,74,1.0,6.0,84,0.00,,,0.00,weatherlink.com 1.10,2013-03-08 14:09:00,
2013-03-08 08:24:00,36.3,31.0,30.39,ESE,110,2.0,10.0,82,0.00,,,0.00,weatherlink.com 1.10,2013-03-08 14:24:00,
2013-03-08 08:39:00,36.8,31.0,30.40,East,99,1.0,11.0,79,0.00,,,0.00,weatherlink.com 1.10,2013-03-08 14:39:00,
2013-03-08 08:54:00,37.2,31.0,30.41,ESE,105,2.0,11.0,79,0.00,,,0.00,weatherlink.com 1.10,2013-03-08 14:54:00,
2013-03-08 09:10:00,38.8,32.0,30.40,East,81,6.0,7.0,76,0.00,,,0.00,weatherlink.com 1.10,2013-03-08 15:10:00,
2013-03-08 09:25:00,39.6,33.0,30.40,East,101,4.0,9.0,76,0.00,,,0.00,weatherlink.com 1.10,2013-03-08 15:25:00,
2013-03-08 09:40:00,39.6,33.0,30.41,ENE,67,2.0,8.0,76,0.00,,,0.00,weatherlink.com 1.10,2013-03-08 15:40:00,
2013-03-08 09:55:00,40.6,32.0,30.40,ENE,76,3.0,9.0,71,0.00,,,0.00,weatherlink.com 1.10,2013-03-08 15:55:00,
2013-03-08 10:10:00,41.6,33.0,30.40,East,88,3.0,8.0,71,0.00,,,0.00,weatherlink.com 1.10,2013-03-08 16:10:00,
2013-03-08 10:25:00,42.3,32.0,30.41,East,90,0.0,7.0,67,0.00,,,0.00,weatherlink.com 1.10,2013-03-08 16:25:00,
2013-03-08 10:40:00,43.6,34.0,30.40,NE,54,1.0,8.0,69,0.00,,,0.00,weatherlink.com 1.10,2013-03-08 16:40:00,
2013-03-08 11:10:00,44.5,32.0,30.36,NE,53,5.0,12.0,62,0.00,,,0.00,weatherlink.com 1.10,2013-03-08 17:10:00,
2013-03-08 11:25:00,46.5,34.0,30.36,NE,55,8.0,10.0,61,0.00,,,0.00,weatherlink.com 1.10,2013-03-08 17:25:00,
2013-03-08 11:40:00,47.3,35.0,30.36,ESE,112,4.0,11.0,62,0.00,,,0.00,weatherlink.com 1.10,2013-03-08 17:40:00,
2013-03-08 11:55:00,48.0,35.0,30.36,SE,145,5.0,7.0,62,0.00,,,0.00,weatherlink.com 1.10,2013-03-08 17:55:00,
2013-03-08 12:10:00,48.3,34.0,30.36,North,355,3.0,8.0,59,0.00,,,0.00,weatherlink.com 1.10,2013-03-08 18:10:00,
2013-03-08 12:25:00,49.4,32.0,30.34,ENE,67,4.0,10.0,52,0.00,,,0.00,weatherlink.com 1.10,2013-03-08 18:25:00,
2013-03-08 12:40:00,50.5,33.0,30.32,ENE,77,2.0,10.0,51,0.00,,,0.00,weatherlink.com 1.10,2013-03-08 18:40:00,
2013-03-08 12:55:00,51.9,33.0,30.32,ENE,74,5.0,9.0,48,0.00,,,0.00,weatherlink.com 1.10,2013-03-08 18:55:00,
2013-03-08 13:10:00,52.2,33.0,30.30,East,90,2.0,9.0,49,0.00,,,0.00,weatherlink.com 1.10,2013-03-08 19:10:00,
2013-03-08 13:25:00,53.1,34.0,30.30,SE,134,3.0,9.0,49,0.00,,,0.00,weatherlink.com 1.10,2013-03-08 19:25:00,
2013-03-08 13:40:00,53.7,33.0,30.29,ENE,62,10.0,10.0,45,0.00,,,0.00,weatherlink.com 1.10,2013-03-08 19:40:00,
2013-03-08 13:55:00,54.3,32.0,30.29,ENE,77,2.0,8.0,43,0.00,,,0.00,weatherlink.com 1.10,2013-03-08 19:55:00,
2013-03-08 14:10:00,54.4,33.0,30.29,NE,36,6.0,9.0,44,0.00,,,0.00,weatherlink.com 1.10,2013-03-08 20:10:00,
2013-03-08 14:25:00,55.2,33.0,30.29,ESE,102,2.0,7.0,43,0.00,,,0.00,weatherlink.com 1.10,2013-03-08 20:25:00,
2013-03-08 14:41:00,55.0,34.0,30.28,ENE,76,7.0,7.0,45,0.00,,,0.00,weatherlink.com 1.10,2013-03-08 20:41:00,
2013-03-08 14:56:00,55.5,34.0,30.27,East,85,2.0,10.0,45,0.00,,,0.00,weatherlink.com 1.10,2013-03-08 20:56:00,
2013-03-08 15:11:00,55.4,32.0,30.26,NE,35,5.0,11.0,41,0.00,,,0.00,weatherlink.com 1.10,2013-03-08 21:11:00,
2013-03-08 15:26:00,55.2,32.0,30.27,NE,44,3.0,8.0,41,0.00,,,0.00,weatherlink.com 1.10,2013-03-08 21:26:00,
2013-03-08 15:41:00,55.7,34.0,30.26,ESE,103,0.0,6.0,44,0.00,,,0.00,weatherlink.com 1.10,2013-03-08 21:41:00,
2013-03-08 15:56:00,55.3,31.0,30.27,NE,38,4.0,9.0,40,0.00,,,0.00,weatherlink.com 1.10,2013-03-08 21:56:00,
2013-03-08 16:11:00,54.7,31.0,30.27,ENE,59,1.0,8.0,41,0.00,,,0.00,weatherlink.com 1.10,2013-03-08 22:11:00,
2013-03-08 16:26:00,55.0,30.0,30.27,ENE,71,4.0,8.0,38,0.00,,,0.00,weatherlink.com 1.10,2013-03-08 22:26:00,
2013-03-08 16:41:00,54.8,28.0,30.27,ENE,77,4.0,6.0,36,0.00,,,0.00,weatherlink.com 1.10,2013-03-08 22:41:00,
2013-03-08 16:56:00,54.1,29.0,30.27,ENE,69,1.0,4.0,39,0.00,,,0.00,weatherlink.com 1.10,2013-03-08 22:56:00,
2013-03-08 17:11:00,52.7,32.0,30.26,ENE,65,1.0,6.0,46,0.00,,,0.00,weatherlink.com 1.10,2013-03-08 23:11:00,
2013-03-08 17:26:00,52.2,29.0,30.26,East,84,2.0,7.0,41,0.00,,,0.00,weatherlink.com 1.10,2013-03-08 23:26:00,
2013-03-08 17:41:00,51.0,29.0,30.26,ENE,74,5.0,5.0,43,0.00,,,0.00,weatherlink.com 1.10,2013-03-08 23:41:00,
2013-03-08 17:56:00,49.7,29.0,30.26,ENE,74,0.0,2.0,46,0.00,,,0.00,weatherlink.com 1.10,2013-03-08 23:56:00,
2013-03-08 18:11:00,49.5,30.0,30.26,NE,42,0.0,2.0,47,0.00,,,0.00,weatherlink.com 1.10,2013-03-09 00:11:00,
2013-03-08 18:26:00,47.0,31.0,30.26,NE,42,0.0,2.0,54,0.00,,,0.00,weatherlink.com 1.10,2013-03-09 00:26:00,
2013-03-08 18:41:00,47.4,31.0,30.25,NE,44,0.0,2.0,54,0.00,,,0.00,weatherlink.com 1.10,2013-03-09 00:41:00,
2013-03-08 18:56:00,47.1,31.0,30.25,East,90,2.0,5.0,53,0.00,,,0.00,weatherlink.com 1.10,2013-03-09 00:56:00,
2013-03-08 19:11:00,48.1,31.0,30.25,ENE,78,2.0,6.0,51,0.00,,,0.00,weatherlink.com 1.10,2013-03-09 01:11:00,
2013-03-08 19:26:00,48.0,30.0,30.25,East,82,5.0,7.0,51,0.00,,,0.00,weatherlink.com 1.10,2013-03-09 01:26:00,
2013-03-08 19:41:00,47.2,31.0,30.25,ENE,71,0.0,6.0,54,0.00,,,0.00,weatherlink.com 1.10,2013-03-09 01:41:00,
2013-03-08 19:56:00,46.7,31.0,30.25,East,85,3.0,5.0,55,0.00,,,0.00,weatherlink.com 1.10,2013-03-09 01:56:00,
2013-03-08 20:11:00,45.1,31.0,30.25,East,83,0.0,2.0,59,0.00,,,0.00,weatherlink.com 1.10,2013-03-09 02:11:00,
2013-03-08 20:26:00,43.3,31.0,30.25,East,83,0.0,2.0,63,0.00,,,0.00,weatherlink.com 1.10,2013-03-09 02:26:00,
2013-03-08 20:41:00,42.9,32.0,30.25,East,83,0.0,2.0,66,0.00,,,0.00,weatherlink.com 1.10,2013-03-09 02:41:00,
2013-03-08 20:56:00,43.2,32.0,30.25,East,83,0.0,0.0,66,0.00,,,0.00,weatherlink.com 1.10,2013-03-09 02:56:00,
2013-03-08 21:11:00,43.4,32.0,30.24,East,83,0.0,1.0,65,0.00,,,0.00,weatherlink.com 1.10,2013-03-09 03:11:00,
2013-03-08 21:26:00,43.7,32.0,30.25,East,83,0.0,4.0,64,0.00,,,0.00,weatherlink.com 1.10,2013-03-09 03:26:00,
2013-03-08 21:41:00,43.5,32.0,30.25,East,83,0.0,1.0,64,0.00,,,0.00,weatherlink.com 1.10,2013-03-09 03:41:00,
2013-03-08 21:56:00,42.5,32.0,30.25,East,83,0.0,0.0,66,0.00,,,0.00,weatherlink.com 1.10,2013-03-09 03:56:00,
2013-03-08 22:11:00,42.5,33.0,30.25,East,83,0.0,0.0,68,0.00,,,0.00,weatherlink.com 1.10,2013-03-09 04:11:00,
2013-03-08 22:26:00,43.9,32.0,30.24,East,83,0.0,1.0,64,0.00,,,0.00,weatherlink.com 1.10,2013-03-09 04:26:00,
2013-03-08 22:41:00,43.9,32.0,30.25,East,83,0.0,0.0,64,0.00,,,0.00,weatherlink.com 1.10,2013-03-09 04:41:00,
2013-03-08 22:56:00,43.5,32.0,30.24,East,83,0.0,1.0,65,0.00,,,0.00,weatherlink.com 1.10,2013-03-09 04:56:00,
2013-03-08 23:11:00,43.2,33.0,30.23,East,83,1.0,1.0,68,0.00,,,0.00,weatherlink.com 1.10,2013-03-09 05:11:00,
2013-03-08 23:26:00,43.6,32.0,30.23,East,83,0.0,2.0,65,0.00,,,0.00,weatherlink.com 1.10,2013-03-09 05:26:00,
2013-03-08 23:41:00,44.5,32.0,30.22,East,83,0.0,2.0,61,0.00,,,0.00,weatherlink.com 1.10,2013-03-09 05:41:00,
2013-03-08 23:56:00,45.0,32.0,30.22,SE,133,0.0,5.0,61,0.00,,,0.00,weatherlink.com 1.10,2013-03-09 05:56:00,